createdAt,value
2023-02-12T00:03:25.904Z,4.64
2023-02-12T00:07:08.566Z,4.66
2023-02-12T00:10:51.217Z,4.66
2023-02-12T00:14:36.392Z,4.69
2023-02-12T00:18:19.048Z,4.76
2023-02-12T00:22:01.730Z,4.79
2023-02-12T00:25:44.366Z,4.84
2023-02-12T00:29:27.032Z,4.86
2023-02-12T00:33:11.087Z,4.85
2023-02-12T00:36:53.769Z,4.77
2023-02-12T00:40:36.467Z,4.72
2023-02-12T00:44:19.106Z,4.70
2023-02-12T00:48:01.734Z,4.75
2023-02-12T00:51:45.824Z,4.69
2023-02-12T00:55:28.526Z,4.60
2023-02-12T00:59:11.187Z,4.54
2023-02-12T01:02:54.024Z,4.58
2023-02-12T01:06:36.710Z,4.49
2023-02-12T01:10:22.048Z,4.51
2023-02-12T01:14:06.985Z,4.49
2023-02-12T01:17:49.824Z,4.53
2023-02-12T01:21:34.322Z,4.54
2023-02-12T01:25:19.369Z,4.56
2023-02-12T01:29:07.264Z,4.55
2023-02-12T01:32:49.882Z,4.56
2023-02-12T01:36:32.646Z,4.62
2023-02-12T01:40:16.740Z,4.66
2023-02-12T01:44:22.004Z,4.69
2023-02-12T01:48:05.005Z,4.70
2023-02-12T01:51:48.814Z,4.64
2023-02-12T01:55:31.562Z,4.60
2023-02-12T01:59:14.358Z,4.54
2023-02-12T02:03:01.095Z,4.50
2023-02-12T02:06:48.568Z,4.48
2023-02-12T02:10:31.362Z,4.42
2023-02-12T02:14:31.575Z,4.41
2023-02-12T02:18:18.866Z,4.42
2023-02-12T02:22:25.689Z,4.39
2023-02-12T02:26:21.492Z,4.39
2023-02-12T02:30:33.666Z,4.43
2023-02-12T02:34:22.888Z,4.35
2023-02-12T02:38:14.781Z,4.36
2023-02-12T02:42:02.221Z,4.34
2023-02-12T02:45:48.464Z,4.31
2023-02-12T02:49:35.875Z,4.30
2023-02-12T02:53:22.190Z,4.27
2023-02-12T02:57:09.261Z,4.26
2023-02-12T03:00:57.131Z,4.25
2023-02-12T03:04:43.611Z,4.21
2023-02-12T03:08:34.188Z,4.19
2023-02-12T03:12:22.755Z,4.16
2023-02-12T03:16:11.267Z,4.18
2023-02-12T03:19:57.003Z,4.18
2023-02-12T03:23:43.514Z,4.21
2023-02-12T03:27:30.269Z,4.20
2023-02-12T03:31:21.279Z,4.28
2023-02-12T03:35:11.378Z,4.28
2023-02-12T03:38:55.266Z,4.28
2023-02-12T03:42:42.288Z,4.25
2023-02-12T03:46:28.598Z,4.22
2023-02-12T03:50:15.321Z,4.22
2023-02-12T03:53:58.543Z,4.24
2023-02-12T03:57:43.685Z,4.22
2023-02-12T04:01:27.957Z,4.19
2023-02-12T04:05:18.425Z,4.16
2023-02-12T04:09:05.159Z,4.20
2023-02-12T04:12:54.043Z,4.21
2023-02-12T04:16:43.013Z,4.26
2023-02-12T04:20:28.591Z,4.33
2023-02-12T04:24:18.650Z,4.38
2023-02-12T04:28:08.313Z,4.37
2023-02-12T04:31:57.615Z,4.39
2023-02-12T04:35:45.246Z,4.44
2023-02-12T04:39:30.408Z,4.42
2023-02-12T04:43:13.066Z,4.44
2023-02-12T04:46:57.239Z,4.42
2023-02-12T04:50:41.906Z,4.35
2023-02-12T04:54:25.074Z,4.29
2023-02-12T04:58:08.257Z,4.29
2023-02-12T05:01:51.071Z,4.33
2023-02-12T05:05:35.253Z,4.33
2023-02-12T05:09:20.118Z,4.32
2023-02-12T05:13:02.749Z,4.30
2023-02-12T05:16:45.430Z,4.28
2023-02-12T05:20:28.074Z,4.28
2023-02-12T05:24:12.090Z,4.27
2023-02-12T05:27:56.687Z,4.29
2023-02-12T05:31:39.696Z,4.33
2023-02-12T05:35:22.450Z,4.33
2023-02-12T05:39:05.397Z,4.35
2023-02-12T05:42:49.396Z,4.33
2023-02-12T05:46:32.525Z,4.41
2023-02-12T05:50:16.338Z,4.42
2023-02-12T05:54:00.902Z,4.47
2023-02-12T05:57:43.530Z,4.53
2023-02-12T06:01:29.694Z,4.51
2023-02-12T06:05:12.410Z,4.53
2023-02-12T06:08:55.608Z,4.55
2023-02-12T06:12:38.367Z,4.56
2023-02-12T06:16:22.456Z,4.58
2023-02-12T06:20:07.091Z,4.54
2023-02-12T06:23:50.221Z,4.47
2023-02-12T06:27:32.896Z,4.45
2023-02-12T06:31:20.369Z,4.42
2023-02-12T06:35:03.154Z,4.44
2023-02-12T06:38:47.589Z,4.42
2023-02-12T06:42:31.062Z,4.45
2023-02-12T06:46:15.265Z,4.48
2023-02-12T06:49:57.946Z,4.55
2023-02-12T06:53:41.113Z,4.59
2023-02-12T06:57:25.121Z,4.63
2023-02-12T07:01:13.621Z,4.63
2023-02-12T07:04:56.441Z,4.63
2023-02-12T07:08:39.136Z,4.63
2023-02-12T07:12:21.765Z,4.62
2023-02-12T07:16:06.990Z,4.63
2023-02-12T07:19:49.681Z,4.58
2023-02-12T07:23:32.500Z,4.57
2023-02-12T07:27:15.191Z,4.56
2023-02-12T07:30:57.888Z,4.55
2023-02-12T07:34:41.995Z,4.57
2023-02-12T07:38:24.684Z,4.60
2023-02-12T07:42:08.560Z,4.61
2023-02-12T07:45:51.247Z,4.63
2023-02-12T07:49:33.994Z,4.64
2023-02-12T07:53:17.989Z,4.70
2023-02-12T07:57:01.449Z,4.76
2023-02-12T08:00:44.117Z,4.82
2023-02-12T08:04:26.896Z,4.87
2023-02-12T08:08:09.545Z,4.85
2023-02-12T08:11:53.635Z,4.85
2023-02-12T08:15:36.406Z,4.98
2023-02-12T08:19:22.706Z,5.07
2023-02-12T08:23:06.528Z,5.15
2023-02-12T08:26:49.204Z,5.20
2023-02-12T08:30:33.269Z,5.26
2023-02-12T08:34:20.403Z,5.31
2023-02-12T08:38:03.121Z,5.33
2023-02-12T08:41:45.977Z,5.38
2023-02-12T08:45:28.579Z,5.41
2023-02-12T08:49:15.740Z,5.51
2023-02-12T08:52:58.400Z,5.60
2023-02-12T08:56:42.184Z,5.64
2023-02-12T09:00:25.027Z,5.70
2023-02-12T09:04:07.991Z,5.78
2023-02-12T09:07:53.754Z,5.88
2023-02-12T09:11:37.705Z,5.98
2023-02-12T09:15:20.384Z,6.05
2023-02-12T09:19:03.353Z,6.17
2023-02-12T09:22:46.008Z,6.26
2023-02-12T09:26:30.294Z,6.33
2023-02-12T09:30:14.032Z,6.44
2023-02-12T09:33:59.342Z,6.53
2023-02-12T09:37:44.432Z,6.61
2023-02-12T09:41:44.906Z,6.70
2023-02-12T09:45:28.556Z,6.77
2023-02-12T09:49:12.615Z,6.79
2023-02-12T09:52:57.915Z,6.91
2023-02-12T09:56:44.490Z,7.00
2023-02-12T10:00:31.116Z,7.09
2023-02-12T10:04:14.071Z,7.20
2023-02-12T10:08:15.750Z,7.23
2023-02-12T10:12:05.919Z,7.21
2023-02-12T10:15:52.263Z,7.36
2023-02-12T10:19:52.153Z,7.36
2023-02-12T10:23:49.275Z,7.29
2023-02-12T10:27:40.955Z,7.58
2023-02-12T10:31:30.262Z,7.83
2023-02-12T10:35:17.296Z,7.94
2023-02-12T10:39:03.406Z,8.09
2023-02-12T10:42:48.994Z,8.12
2023-02-12T10:46:32.569Z,8.07
2023-02-12T10:50:21.585Z,7.95
2023-02-12T10:54:35.629Z,7.84
2023-02-12T10:58:22.684Z,7.49
2023-02-12T11:02:06.683Z,7.39
2023-02-12T11:05:49.691Z,7.44
2023-02-12T11:09:36.225Z,7.39
2023-02-12T11:13:25.400Z,7.40
2023-02-12T11:17:08.111Z,7.49
2023-02-12T11:20:52.201Z,7.52
2023-02-12T11:24:36.046Z,7.43
2023-02-12T11:28:20.212Z,7.46
2023-02-12T11:32:05.663Z,7.54
2023-02-12T11:35:56.981Z,7.77
2023-02-12T11:39:40.878Z,8.07
2023-02-12T11:43:24.911Z,8.09
2023-02-12T11:47:12.072Z,8.09
2023-02-12T11:50:56.322Z,7.96
2023-02-12T11:54:42.303Z,7.88
2023-02-12T11:58:26.348Z,7.86
2023-02-12T12:02:19.873Z,7.90
2023-02-12T12:06:06.541Z,8.04
2023-02-12T12:09:51.456Z,8.07
2023-02-12T12:13:37.895Z,8.09
2023-02-12T12:17:44.272Z,8.25
2023-02-12T12:21:30.527Z,8.23
2023-02-12T12:25:25.472Z,8.34
2023-02-12T12:29:14.296Z,8.44
2023-02-12T12:33:00.809Z,8.57
2023-02-12T12:36:52.189Z,8.55
2023-02-12T12:40:44.608Z,8.69
2023-02-12T12:44:35.568Z,8.75
2023-02-12T12:48:27.113Z,8.95
2023-02-12T12:52:51.833Z,9.21
2023-02-12T12:56:53.774Z,9.40
2023-02-12T13:00:45.415Z,9.67
2023-02-12T13:04:38.704Z,9.87
2023-02-12T13:08:33.060Z,10.03
2023-02-12T13:12:39.826Z,10.24
2023-02-12T13:16:26.179Z,10.28
2023-02-12T13:20:16.629Z,10.51
2023-02-12T13:24:04.596Z,10.78
2023-02-12T13:27:48.787Z,10.66
2023-02-12T13:31:33.753Z,10.27
2023-02-12T13:35:20.661Z,10.23
2023-02-12T13:39:10.476Z,10.37
2023-02-12T13:42:59.309Z,10.56
2023-02-12T13:46:51.865Z,10.69
2023-02-12T13:50:42.519Z,10.95
2023-02-12T13:54:43.455Z,11.32
2023-02-12T13:59:00.281Z,11.55
2023-02-12T14:02:49.247Z,11.78
2023-02-12T14:06:35.189Z,12.08
2023-02-12T14:10:23.540Z,12.21
2023-02-12T14:14:07.473Z,12.37
2023-02-12T14:17:57.009Z,12.56
2023-02-12T14:21:41.255Z,12.45
2023-02-12T14:25:48.096Z,12.44
2023-02-12T14:29:30.684Z,12.60
2023-02-12T14:33:27.720Z,12.72
2023-02-12T14:37:19.141Z,12.78
2023-02-12T14:41:34.131Z,12.79
2023-02-12T14:45:34.805Z,12.71
2023-02-12T14:49:24.550Z,12.67
2023-02-12T14:53:29.086Z,12.72
2023-02-12T14:57:23.643Z,12.58
2023-02-12T15:01:06.956Z,12.70
2023-02-12T15:04:49.917Z,12.73
2023-02-12T15:08:38.132Z,12.61
2023-02-12T15:12:22.577Z,12.67
2023-02-12T15:16:09.795Z,12.73
2023-02-12T15:19:57.354Z,12.64
2023-02-12T15:23:43.169Z,12.60
2023-02-12T15:27:25.797Z,12.50
2023-02-12T15:31:10.848Z,12.21
2023-02-12T15:34:54.679Z,12.17
2023-02-12T15:38:39.867Z,12.22
2023-02-12T15:42:32.830Z,11.93
2023-02-12T15:46:19.114Z,11.78
2023-02-12T15:50:01.922Z,11.63
2023-02-12T15:53:45.154Z,11.43
2023-02-12T15:57:28.190Z,11.25
2023-02-12T16:01:17.817Z,11.12
2023-02-12T16:05:01.679Z,10.95
2023-02-12T16:08:45.837Z,10.71
2023-02-12T16:12:32.589Z,10.53
2023-02-12T16:16:28.991Z,10.31
2023-02-12T16:20:24.769Z,10.11
2023-02-12T16:24:22.145Z,9.77
2023-02-12T16:28:06.804Z,9.54
2023-02-12T16:32:00.355Z,9.25
2023-02-12T16:35:43.053Z,9.07
2023-02-12T16:40:01.346Z,8.84
2023-02-12T16:43:43.974Z,8.49
2023-02-12T16:47:28.175Z,8.31
2023-02-12T16:51:23.166Z,8.14
2023-02-12T16:55:07.565Z,8.01
2023-02-12T16:58:52.067Z,7.86
2023-02-12T17:02:37.331Z,7.75
2023-02-12T17:06:24.002Z,7.57
2023-02-12T17:10:07.815Z,7.48
2023-02-12T17:13:52.507Z,7.38
2023-02-12T17:17:36.607Z,7.33
2023-02-12T17:21:22.652Z,7.26
2023-02-12T17:25:06.237Z,7.19
2023-02-12T17:28:48.894Z,7.12
2023-02-12T17:32:31.614Z,7.05
2023-02-12T17:36:15.638Z,7.00
2023-02-12T17:39:58.315Z,6.88
2023-02-12T17:43:40.952Z,6.87
2023-02-12T17:47:23.741Z,6.82
2023-02-12T17:51:06.856Z,6.79
2023-02-12T17:54:50.909Z,6.74
2023-02-12T17:58:33.599Z,6.64
2023-02-12T18:02:16.291Z,6.53
2023-02-12T18:05:58.929Z,6.42
2023-02-12T18:09:41.693Z,6.30
2023-02-12T18:13:25.952Z,6.22
2023-02-12T18:17:08.633Z,6.15
2023-02-12T18:20:51.396Z,5.99
2023-02-12T18:24:35.083Z,5.89
2023-02-12T18:28:17.871Z,5.77
2023-02-12T18:32:01.940Z,5.62
2023-02-12T18:35:44.758Z,5.60
2023-02-12T18:39:27.519Z,5.58
2023-02-12T18:43:10.246Z,5.58
2023-02-12T18:46:52.935Z,5.58
2023-02-12T18:50:38.701Z,5.58
2023-02-12T18:54:21.449Z,5.57
2023-02-12T18:58:04.907Z,5.57
2023-02-12T19:01:50.845Z,5.53
2023-02-12T19:05:33.857Z,5.47
2023-02-12T19:09:20.413Z,5.39
2023-02-12T19:13:03.136Z,5.33
2023-02-12T19:16:46.594Z,5.26
2023-02-12T19:20:29.321Z,5.20
2023-02-12T19:24:13.575Z,5.16
2023-02-12T19:27:58.564Z,5.13
2023-02-12T19:31:44.590Z,5.07
2023-02-12T19:35:27.383Z,5.00
2023-02-12T19:39:11.595Z,4.97
2023-02-12T19:42:54.314Z,4.87
2023-02-12T19:46:41.582Z,4.84
2023-02-12T19:50:24.290Z,4.79
2023-02-12T19:54:07.959Z,4.73
2023-02-12T19:57:59.544Z,4.64
2023-02-12T20:01:43.732Z,4.58
2023-02-12T20:05:26.432Z,4.56
2023-02-12T20:09:09.472Z,4.51
2023-02-12T20:12:52.256Z,4.48
2023-02-12T20:16:38.108Z,4.49
2023-02-12T20:20:22.681Z,4.45
2023-02-12T20:24:06.265Z,4.42
2023-02-12T20:27:48.943Z,4.39
2023-02-12T20:31:33.789Z,4.32
2023-02-12T20:35:17.243Z,4.34
2023-02-12T20:39:01.396Z,4.35
2023-02-12T20:42:45.209Z,4.32
2023-02-12T20:46:27.885Z,4.29
2023-02-12T20:50:11.117Z,4.28
2023-02-12T20:53:55.316Z,4.26
2023-02-12T20:57:39.387Z,4.23
2023-02-12T21:01:23.472Z,4.20
2023-02-12T21:05:07.198Z,4.16
2023-02-12T21:08:51.210Z,4.10
2023-02-12T21:12:33.918Z,4.07
2023-02-12T21:16:20.168Z,4.06
2023-02-12T21:20:03.015Z,3.95
2023-02-12T21:23:45.718Z,3.90
2023-02-12T21:27:28.394Z,3.84
2023-02-12T21:31:13.082Z,3.81
2023-02-12T21:34:57.161Z,3.76
2023-02-12T21:38:42.383Z,3.72
2023-02-12T21:42:25.044Z,3.69
2023-02-12T21:46:09.061Z,3.70
2023-02-12T21:49:52.145Z,3.70
2023-02-12T21:53:36.127Z,3.70
2023-02-12T21:57:19.908Z,3.70
2023-02-12T22:01:08.214Z,3.71
2023-02-12T22:04:51.178Z,3.72
2023-02-12T22:08:34.204Z,3.69
2023-02-12T22:12:19.436Z,3.63
2023-02-12T22:16:09.388Z,3.60
2023-02-12T22:19:52.119Z,3.59
2023-02-12T22:23:35.100Z,3.60
2023-02-12T22:27:19.160Z,3.57
2023-02-12T22:31:06.557Z,3.52
2023-02-12T22:34:49.205Z,3.51
2023-02-12T22:38:31.998Z,3.45
2023-02-12T22:42:14.737Z,3.40
2023-02-12T22:45:59.085Z,3.44
2023-02-12T22:49:41.798Z,3.36
2023-02-12T22:53:25.566Z,3.37
2023-02-12T22:57:08.206Z,3.38
2023-02-12T23:00:50.890Z,3.34
2023-02-12T23:04:35.068Z,3.29
2023-02-12T23:08:17.821Z,3.25
2023-02-12T23:12:00.555Z,3.24
2023-02-12T23:15:43.185Z,3.18
2023-02-12T23:19:25.827Z,3.18
2023-02-12T23:23:10.027Z,3.21
2023-02-12T23:26:53.318Z,3.18
2023-02-12T23:30:36.221Z,3.17
2023-02-12T23:34:19.167Z,3.15
2023-02-12T23:38:02.052Z,3.13
2023-02-12T23:41:46.109Z,3.09
2023-02-12T23:45:29.196Z,3.06
2023-02-12T23:49:11.886Z,3.04
2023-02-12T23:52:54.607Z,3.02
2023-02-12T23:56:37.268Z,3.00
